KEUG/EUG METAR and TAF weather

Enter ICAO airport designator
Station Type Date Time Source
KEUG METAR 2020/09/19 18:36 UTC NOAA

KEUG 191836Z 14003KT 10SM FEW017 SCT023 BKN045 20/14 A3013 RMK AO2 TCU DSNT SE-S AND SW T02000144 $


Station Type Date Time Source
KEUG Decoded METAR 2020/09/19 18:36 UTC NOAA

MAHLON SWEET FIELD, OR, United States (KEUG) 44-08N 123-13W 114M
Sep 19, 2020 - 02:36 PM EDT / 2020.09.19 1836 UTC
Wind: from the SE (140 degrees) at 3 MPH (3 KT):0
Visibility: 10 mile(s):0
Sky conditions: mostly cloudy
Weather: Towering cumulus clouds observed
Temperature: 68.0 F (20.0 C)
Dew Point: 57.9 F (14.4 C)
Relative Humidity: 70%
Pressure (altimeter): 30.13 in. Hg (1020 hPa)
ob: KEUG 191836Z 14003KT 10SM FEW017 SCT023 BKN045 20/14 A3013 RMK AO2 TCU DSNT SE-S AND SW T02000144
cycle: 18

Station Type Date Time Source
KEUG TAF 2020/09/19 18:22 UTC NOAA

TAF KEUG 191720Z 1918/2018 00000KT P6SM BKN010 OVC024
FM192100 VRB04KT P6SM SCT060
FM201400 00000KT 3SM BR BKN040
FM201600 00000KT 5SM BR BKN035
FM201700 00000KT P6SM BKN070

Example: see airport list